createdAt,value
2023-01-26T00:00:56.502Z,12.95
2023-01-26T00:03:24.176Z,12.10
2023-01-26T00:05:50.668Z,13.23
2023-01-26T00:08:17.348Z,14.95
2023-01-26T00:10:50.103Z,14.95
2023-01-26T00:13:22.542Z,11.45
2023-01-26T00:15:49.186Z,11.27
2023-01-26T00:18:15.645Z,11.38
2023-01-26T00:20:42.109Z,10.23
2023-01-26T00:23:08.610Z,11.63
2023-01-26T00:25:38.000Z,11.70
2023-01-26T00:28:04.586Z,10.55
2023-01-26T00:30:31.086Z,13.07
2023-01-26T00:32:57.968Z,11.82
2023-01-26T00:35:24.764Z,10.93
2023-01-26T00:37:51.239Z,10.90
2023-01-26T00:40:17.680Z,10.50
2023-01-26T00:42:44.127Z,11.30
2023-01-26T00:45:10.730Z,12.85
2023-01-26T00:47:37.934Z,11.85
2023-01-26T00:50:05.318Z,10.05
2023-01-26T00:52:31.809Z,11.20
2023-01-26T00:54:59.190Z,11.32
2023-01-26T00:57:25.607Z,11.07
2023-01-26T00:59:52.035Z,10.32
2023-01-26T01:02:18.517Z,9.95
2023-01-26T01:04:44.971Z,11.35
2023-01-26T01:07:11.957Z,12.25
2023-01-26T01:09:38.385Z,11.75
2023-01-26T01:12:05.595Z,11.80
2023-01-26T01:14:32.044Z,10.77
2023-01-26T01:16:58.591Z,11.38
2023-01-26T01:19:25.053Z,12.15
2023-01-26T01:21:51.546Z,10.80
2023-01-26T01:24:18.014Z,10.95
2023-01-26T01:26:44.645Z,11.27
2023-01-26T01:29:14.024Z,10.25
2023-01-26T01:31:41.414Z,12.05
2023-01-26T01:34:07.961Z,11.45
2023-01-26T01:36:34.575Z,10.05
2023-01-26T01:39:01.813Z,11.30
2023-01-26T01:41:28.955Z,11.98
2023-01-26T01:44:13.627Z,10.40
2023-01-26T01:46:48.376Z,10.52
2023-01-26T01:49:20.700Z,10.48
2023-01-26T01:51:54.044Z,10.13
2023-01-26T01:54:27.619Z,10.77
2023-01-26T01:56:58.022Z,10.27
2023-01-26T01:59:25.202Z,10.63
2023-01-26T02:01:53.161Z,11.60
2023-01-26T02:04:22.642Z,11.30
2023-01-26T02:06:52.247Z,9.35
2023-01-26T02:09:41.474Z,11.35
2023-01-26T02:12:27.481Z,10.88
2023-01-26T02:14:54.059Z,10.05
2023-01-26T02:17:21.366Z,10.82
2023-01-26T02:20:06.973Z,10.25
2023-01-26T02:22:49.458Z,10.45
2023-01-26T02:25:21.901Z,10.27
2023-01-26T02:27:48.861Z,11.10
2023-01-26T02:30:16.467Z,10.90
2023-01-26T02:32:43.996Z,10.38
2023-01-26T02:35:10.553Z,9.35
2023-01-26T02:37:37.075Z,9.52
2023-01-26T02:40:21.035Z,9.38
2023-01-26T02:42:47.645Z,9.23
2023-01-26T02:45:16.014Z,11.45
2023-01-26T02:47:44.853Z,12.40
2023-01-26T02:50:12.120Z,12.68
2023-01-26T02:52:39.214Z,10.88
2023-01-26T02:55:24.940Z,10.60
2023-01-26T02:58:00.368Z,10.93
2023-01-26T03:00:36.896Z,12.13
2023-01-26T03:03:41.399Z,10.70
2023-01-26T03:06:13.402Z,11.45
2023-01-26T03:08:39.998Z,11.48
2023-01-26T03:11:07.676Z,11.52
2023-01-26T03:13:34.879Z,12.27
2023-01-26T03:16:07.163Z,12.43
2023-01-26T03:18:55.164Z,12.65
2023-01-26T03:21:40.965Z,13.82
2023-01-26T03:24:30.863Z,13.75
2023-01-26T03:27:18.205Z,14.63
2023-01-26T03:29:45.708Z,11.70
2023-01-26T03:32:12.845Z,11.77
2023-01-26T03:34:41.829Z,13.02
2023-01-26T03:37:08.528Z,13.93
2023-01-26T03:40:16.448Z,11.30
2023-01-26T03:43:01.836Z,11.82
2023-01-26T03:45:48.377Z,14.07
2023-01-26T03:48:33.462Z,11.75
2023-01-26T03:51:20.853Z,10.45
2023-01-26T03:54:06.088Z,10.95
2023-01-26T03:56:33.716Z,12.05
2023-01-26T03:59:15.210Z,11.05
2023-01-26T04:02:05.542Z,11.52
2023-01-26T04:04:51.839Z,11.65
2023-01-26T04:07:40.152Z,12.75
2023-01-26T04:10:07.061Z,12.23
2023-01-26T04:12:33.709Z,11.07
2023-01-26T04:15:33.508Z,11.63
2023-01-26T04:18:24.990Z,11.13
2023-01-26T04:21:10.314Z,12.27
2023-01-26T04:23:39.438Z,12.88
2023-01-26T04:26:06.524Z,11.82
2023-01-26T04:28:33.002Z,11.35
2023-01-26T04:30:59.475Z,13.00
2023-01-26T04:33:25.945Z,11.45
2023-01-26T04:35:52.510Z,11.73
2023-01-26T04:38:20.294Z,11.52
2023-01-26T04:40:53.815Z,11.98
2023-01-26T04:43:20.830Z,11.35
2023-01-26T04:46:01.110Z,10.77
2023-01-26T04:48:30.331Z,11.82
2023-01-26T04:51:00.163Z,13.00
2023-01-26T04:53:27.362Z,13.15
2023-01-26T04:55:55.147Z,11.57
2023-01-26T04:58:22.276Z,12.02
2023-01-26T05:00:53.752Z,12.43
2023-01-26T05:03:20.473Z,11.85
2023-01-26T05:05:52.847Z,11.65
2023-01-26T05:08:22.705Z,12.43
2023-01-26T05:10:49.741Z,11.35
2023-01-26T05:13:22.842Z,11.43
2023-01-26T05:16:14.600Z,12.52
2023-01-26T05:19:02.989Z,11.45
2023-01-26T05:21:52.541Z,12.15
2023-01-26T05:24:19.181Z,9.45
2023-01-26T05:27:20.646Z,10.80
2023-01-26T05:29:52.456Z,8.63
2023-01-26T05:32:19.467Z,9.23
2023-01-26T05:34:46.114Z,10.95
2023-01-26T05:37:14.959Z,10.57
2023-01-26T05:39:43.747Z,11.80
2023-01-26T05:42:13.864Z,12.93
2023-01-26T05:45:05.030Z,11.40
2023-01-26T05:47:32.593Z,10.82
2023-01-26T05:49:59.077Z,10.95
2023-01-26T05:52:29.545Z,10.70
2023-01-26T05:54:56.051Z,11.38
2023-01-26T05:57:23.328Z,10.40
2023-01-26T05:59:54.415Z,11.00
2023-01-26T06:02:21.972Z,10.90
2023-01-26T06:04:48.953Z,11.88
2023-01-26T06:07:15.999Z,11.05
2023-01-26T06:10:06.568Z,11.82
2023-01-26T06:12:43.026Z,9.93
2023-01-26T06:15:32.597Z,12.20
2023-01-26T06:18:00.994Z,12.43
2023-01-26T06:20:27.526Z,10.57
2023-01-26T06:23:01.587Z,11.38
2023-01-26T06:25:29.806Z,9.98
2023-01-26T06:27:59.537Z,10.43
2023-01-26T06:30:27.726Z,11.93
2023-01-26T06:33:00.112Z,11.30
2023-01-26T06:35:27.451Z,13.25
2023-01-26T06:37:56.256Z,9.93
2023-01-26T06:40:22.787Z,11.77
2023-01-26T06:42:50.053Z,18.25
2023-01-26T06:45:20.591Z,12.80
2023-01-26T06:47:49.095Z,10.00
2023-01-26T06:50:18.620Z,9.27
2023-01-26T06:52:54.425Z,12.52
2023-01-26T06:55:46.953Z,12.63
2023-01-26T06:58:31.110Z,10.20
2023-01-26T07:01:20.590Z,10.52
2023-01-26T07:03:51.438Z,11.13
2023-01-26T07:06:18.307Z,10.57
2023-01-26T07:08:44.974Z,11.50
2023-01-26T07:11:12.712Z,10.65
2023-01-26T07:13:40.063Z,10.50
2023-01-26T07:16:09.023Z,10.05
2023-01-26T07:18:37.101Z,7.20
2023-01-26T07:21:10.211Z,9.45
2023-01-26T07:23:36.685Z,9.25
2023-01-26T07:26:03.899Z,13.05
2023-01-26T07:28:30.756Z,10.88
2023-01-26T07:30:58.326Z,6.95
2023-01-26T07:33:24.996Z,8.15
2023-01-26T07:35:55.882Z,7.18
2023-01-26T07:38:22.376Z,6.25
2023-01-26T07:40:49.718Z,6.13
2023-01-26T07:43:16.676Z,6.38
2023-01-26T07:45:54.163Z,7.20
2023-01-26T07:48:23.024Z,7.30
2023-01-26T07:50:50.000Z,6.25
2023-01-26T07:53:22.751Z,6.38
2023-01-26T07:55:49.485Z,6.38
2023-01-26T07:58:18.517Z,6.90
2023-01-26T08:00:47.136Z,6.57
2023-01-26T08:03:14.061Z,5.68
2023-01-26T08:05:40.529Z,7.63
2023-01-26T08:08:07.038Z,6.00
2023-01-26T08:10:33.484Z,6.75
2023-01-26T08:13:00.803Z,6.30
2023-01-26T08:15:28.617Z,7.47
2023-01-26T08:17:55.360Z,5.40
2023-01-26T08:20:22.519Z,7.35
2023-01-26T08:22:48.931Z,6.60
2023-01-26T08:25:15.505Z,6.28
2023-01-26T08:27:41.919Z,6.72
2023-01-26T08:30:09.276Z,6.95
2023-01-26T08:32:35.951Z,6.95
2023-01-26T08:35:02.482Z,8.18
2023-01-26T08:37:29.017Z,7.35
2023-01-26T08:39:55.494Z,7.20
2023-01-26T08:42:22.836Z,8.25
2023-01-26T08:44:49.382Z,7.50
2023-01-26T08:47:15.845Z,7.35
2023-01-26T08:49:42.250Z,6.25
2023-01-26T08:52:08.806Z,6.63
2023-01-26T08:54:35.247Z,6.82
2023-01-26T08:57:01.722Z,6.60
2023-01-26T08:59:28.210Z,5.68
2023-01-26T09:01:55.664Z,6.43
2023-01-26T09:04:22.280Z,5.57
2023-01-26T09:06:48.852Z,5.78
2023-01-26T09:09:15.511Z,6.55
2023-01-26T09:11:42.042Z,6.68
2023-01-26T09:14:08.589Z,7.90
2023-01-26T09:16:35.144Z,7.32
2023-01-26T09:19:01.665Z,7.82
2023-01-26T09:21:28.092Z,7.47
2023-01-26T09:23:56.641Z,7.18
2023-01-26T09:26:23.354Z,6.25
2023-01-26T09:28:51.899Z,5.88
2023-01-26T09:31:19.123Z,6.25
2023-01-26T09:33:45.672Z,6.22
2023-01-26T09:36:12.818Z,5.90
2023-01-26T09:38:40.170Z,6.45
2023-01-26T09:41:12.704Z,7.57
2023-01-26T09:43:52.996Z,6.57
2023-01-26T09:46:27.725Z,7.55
2023-01-26T09:49:06.565Z,7.13
2023-01-26T09:51:32.961Z,7.35
2023-01-26T09:54:05.675Z,7.93
2023-01-26T09:56:34.021Z,8.02
2023-01-26T09:59:23.733Z,6.47
2023-01-26T10:01:59.656Z,6.90
2023-01-26T10:04:37.371Z,6.80
2023-01-26T10:07:11.466Z,6.47
2023-01-26T10:09:51.919Z,7.38
2023-01-26T10:12:24.401Z,7.72
2023-01-26T10:15:10.795Z,6.50
2023-01-26T10:17:43.549Z,7.78
2023-01-26T10:20:22.253Z,6.68
2023-01-26T10:22:52.605Z,6.35
2023-01-26T10:25:35.171Z,6.63
2023-01-26T10:28:16.181Z,7.55
2023-01-26T10:30:45.206Z,7.88
2023-01-26T10:33:19.411Z,8.27
2023-01-26T10:35:46.268Z,7.70
2023-01-26T10:38:37.890Z,10.52
2023-01-26T10:41:19.442Z,9.63
2023-01-26T10:44:02.671Z,10.32
2023-01-26T10:46:35.664Z,9.52
2023-01-26T10:49:14.939Z,7.35
2023-01-26T10:51:46.928Z,9.48
2023-01-26T10:54:20.820Z,9.32
2023-01-26T10:56:54.030Z,8.48
2023-01-26T10:59:23.440Z,9.13
2023-01-26T11:01:56.161Z,9.27
2023-01-26T11:04:24.362Z,9.85
2023-01-26T11:06:51.276Z,7.82
2023-01-26T11:09:21.721Z,8.30
2023-01-26T11:11:57.668Z,8.95
2023-01-26T11:14:24.342Z,9.23
2023-01-26T11:16:57.566Z,8.25
2023-01-26T11:19:55.628Z,9.18
2023-01-26T11:22:39.056Z,8.10
2023-01-26T11:25:27.081Z,8.15
2023-01-26T11:28:08.871Z,8.10
2023-01-26T11:34:02.221Z,9.73
2023-01-26T11:36:40.622Z,9.95
2023-01-26T11:39:35.196Z,7.15
2023-01-26T11:42:18.703Z,7.95
2023-01-26T11:44:55.286Z,8.60
2023-01-26T11:47:26.692Z,8.80
2023-01-26T11:50:16.124Z,8.10
2023-01-26T11:53:07.260Z,7.88
2023-01-26T11:56:04.055Z,6.85
2023-01-26T11:58:55.713Z,9.05
2023-01-26T12:01:31.538Z,7.82
2023-01-26T12:03:57.979Z,10.00
2023-01-26T12:06:45.525Z,9.80
2023-01-26T12:09:38.561Z,8.48
2023-01-26T12:12:13.269Z,7.65
2023-01-26T12:14:51.232Z,8.65
2023-01-26T12:17:51.622Z,8.70
2023-01-26T12:20:29.470Z,7.95
2023-01-26T12:23:21.840Z,8.85
2023-01-26T12:25:54.358Z,9.40
2023-01-26T12:28:42.221Z,9.07
2023-01-26T12:31:53.720Z,9.20
2023-01-26T12:34:33.757Z,8.18
2023-01-26T12:37:18.460Z,8.63
2023-01-26T12:39:51.870Z,9.20
2023-01-26T12:42:42.993Z,10.10
2023-01-26T12:45:18.615Z,10.48
2023-01-26T12:48:07.773Z,9.30
2023-01-26T12:50:45.649Z,9.30
2023-01-26T12:53:32.392Z,11.02
2023-01-26T12:56:06.209Z,10.15
2023-01-26T12:58:41.440Z,12.18
2023-01-26T13:01:12.882Z,10.38
2023-01-26T13:03:43.883Z,11.07
2023-01-26T13:06:10.309Z,8.93
2023-01-26T13:08:36.697Z,10.63
2023-01-26T13:11:08.800Z,10.00
2023-01-26T13:13:52.470Z,10.45
2023-01-26T13:16:18.836Z,9.77
2023-01-26T13:18:56.151Z,10.70
2023-01-26T13:21:42.574Z,9.23
2023-01-26T13:24:18.200Z,9.02
2023-01-26T13:26:53.011Z,10.30
2023-01-26T13:29:25.610Z,10.07
2023-01-26T13:31:56.517Z,10.18
2023-01-26T13:34:29.511Z,9.00
2023-01-26T13:37:08.825Z,10.38
2023-01-26T13:39:37.403Z,10.15
2023-01-26T13:42:16.510Z,8.43
2023-01-26T13:44:49.760Z,10.30
2023-01-26T13:47:24.112Z,10.63
2023-01-26T13:49:50.971Z,10.38
2023-01-26T13:52:20.487Z,10.18
2023-01-26T13:54:49.300Z,9.88
2023-01-26T13:57:24.714Z,11.35
2023-01-26T13:59:53.942Z,11.75
2023-01-26T14:02:32.290Z,10.98
2023-01-26T14:04:59.986Z,10.85
2023-01-26T14:07:39.522Z,9.60
2023-01-26T14:10:07.026Z,9.45
2023-01-26T14:12:43.626Z,9.82
2023-01-26T14:15:30.686Z,9.02
2023-01-26T14:18:08.947Z,10.15
2023-01-26T14:20:39.327Z,12.20
2023-01-26T14:23:12.954Z,10.02
2023-01-26T14:25:47.110Z,10.55
2023-01-26T14:28:20.717Z,8.93
2023-01-26T14:31:01.470Z,8.65
2023-01-26T14:33:28.221Z,9.05
2023-01-26T14:36:02.925Z,10.57
2023-01-26T14:38:32.933Z,7.60
2023-01-26T14:41:01.030Z,9.65
2023-01-26T14:43:27.777Z,8.63
2023-01-26T14:46:03.459Z,10.63
2023-01-26T14:48:35.084Z,9.55
2023-01-26T14:53:30.826Z,7.68
2023-01-26T14:55:57.495Z,8.18
2023-01-26T14:58:33.022Z,9.30
2023-01-26T15:01:01.378Z,9.57
2023-01-26T15:03:33.138Z,7.43
2023-01-26T15:08:41.221Z,7.78
2023-01-26T15:11:47.169Z,8.23
2023-01-26T15:14:37.238Z,9.93
2023-01-26T15:17:05.036Z,7.95
2023-01-26T15:19:38.585Z,7.30
2023-01-26T15:22:05.272Z,8.32
2023-01-26T15:24:31.933Z,7.47
2023-01-26T15:27:07.460Z,7.93
2023-01-26T15:29:35.013Z,8.75
2023-01-26T15:32:02.123Z,7.90
2023-01-26T15:34:37.491Z,7.07
2023-01-26T15:37:30.158Z,7.03
2023-01-26T15:39:56.939Z,7.03
2023-01-26T15:42:28.931Z,6.88
2023-01-26T15:44:56.175Z,6.82
2023-01-26T15:47:22.841Z,6.45
2023-01-26T15:49:49.354Z,6.95
2023-01-26T15:52:18.095Z,6.68
2023-01-26T15:54:45.214Z,7.15
2023-01-26T15:57:12.844Z,6.75
2023-01-26T15:59:40.158Z,8.05
2023-01-26T16:02:14.110Z,6.03
2023-01-26T16:04:41.087Z,5.97
2023-01-26T16:07:15.689Z,6.65
2023-01-26T16:09:42.591Z,6.50
2023-01-26T16:12:25.863Z,5.68
2023-01-26T16:14:57.187Z,7.80
2023-01-26T16:17:23.596Z,6.20
2023-01-26T16:19:50.011Z,6.43
2023-01-26T16:22:16.555Z,6.68
2023-01-26T16:24:43.002Z,7.55
2023-01-26T16:27:09.651Z,7.20
2023-01-26T16:29:36.197Z,9.27
2023-01-26T16:32:09.619Z,7.32
2023-01-26T16:34:36.214Z,7.35
2023-01-26T16:37:02.697Z,7.72
2023-01-26T16:39:29.286Z,8.25
2023-01-26T16:41:55.815Z,7.65
2023-01-26T16:44:24.153Z,7.70
2023-01-26T16:46:50.566Z,8.43
2023-01-26T16:49:17.196Z,9.10
2023-01-26T16:51:44.246Z,7.70
2023-01-26T16:54:11.735Z,7.53
2023-01-26T16:56:38.301Z,9.25
2023-01-26T16:59:06.051Z,9.23
2023-01-26T17:01:37.300Z,9.23
2023-01-26T17:04:04.373Z,8.57
2023-01-26T17:06:31.397Z,12.63
2023-01-26T17:08:58.376Z,9.75
2023-01-26T17:11:28.202Z,12.02
2023-01-26T17:13:56.169Z,11.00
2023-01-26T17:16:34.605Z,11.00
2023-01-26T17:19:01.182Z,9.40
2023-01-26T17:21:27.708Z,11.82
2023-01-26T17:23:56.422Z,10.70
2023-01-26T17:26:23.259Z,10.48
2023-01-26T17:28:53.892Z,11.25
2023-01-26T17:31:22.773Z,12.63
2023-01-26T17:33:50.325Z,12.98
2023-01-26T17:36:18.931Z,11.93
2023-01-26T17:38:46.272Z,10.95
2023-01-26T17:41:12.774Z,11.65
2023-01-26T17:43:39.225Z,11.07
2023-01-26T17:46:08.393Z,11.77
2023-01-26T17:48:37.497Z,11.52
2023-01-26T17:51:30.138Z,11.57
2023-01-26T17:53:56.593Z,11.85
2023-01-26T17:56:23.491Z,11.35
2023-01-26T17:58:51.751Z,11.98
2023-01-26T18:01:19.180Z,12.25
2023-01-26T18:03:45.771Z,13.23
2023-01-26T18:06:12.555Z,13.40
2023-01-26T18:08:39.334Z,13.32
2023-01-26T18:11:08.401Z,12.43
2023-01-26T18:13:35.468Z,10.88
2023-01-26T18:16:02.506Z,12.90
2023-01-26T18:18:29.891Z,13.65
2023-01-26T18:20:56.686Z,12.80
2023-01-26T18:23:24.340Z,12.05
2023-01-26T18:25:51.152Z,14.82
2023-01-26T18:28:17.708Z,12.68
2023-01-26T18:30:44.447Z,11.98
2023-01-26T18:33:10.958Z,13.98
2023-01-26T18:35:37.428Z,14.90
2023-01-26T18:38:03.921Z,11.02
2023-01-26T18:40:30.979Z,12.70
2023-01-26T18:42:57.889Z,13.75
2023-01-26T18:45:24.570Z,14.32
2023-01-26T18:47:51.115Z,13.00
2023-01-26T18:50:18.125Z,13.50
2023-01-26T18:52:44.589Z,15.07
2023-01-26T18:55:11.669Z,13.13
2023-01-26T18:57:38.567Z,12.23
2023-01-26T19:00:08.218Z,13.93
2023-01-26T19:02:39.364Z,14.25
2023-01-26T19:05:07.425Z,14.52
2023-01-26T19:07:34.327Z,13.40
2023-01-26T19:10:00.857Z,13.85
2023-01-26T19:12:27.282Z,13.65
2023-01-26T19:14:53.754Z,14.02
2023-01-26T19:17:20.342Z,15.43
2023-01-26T19:19:47.616Z,13.57
2023-01-26T19:22:14.163Z,13.27
2023-01-26T19:24:42.805Z,13.20
2023-01-26T19:27:09.732Z,15.00
2023-01-26T19:29:36.235Z,22.85
2023-01-26T19:32:02.807Z,14.82
2023-01-26T19:34:31.155Z,15.48
2023-01-26T19:36:57.661Z,14.02
2023-01-26T19:39:24.163Z,14.38
2023-01-26T19:41:50.677Z,14.38
2023-01-26T19:44:17.176Z,13.52
2023-01-26T19:46:43.608Z,15.18
2023-01-26T19:49:11.814Z,14.77
2023-01-26T19:51:38.298Z,12.25
2023-01-26T19:54:04.790Z,12.05
2023-01-26T19:56:33.276Z,12.95
2023-01-26T19:59:02.167Z,19.85
2023-01-26T20:01:30.872Z,11.52
2023-01-26T20:04:00.211Z,14.20
2023-01-26T20:06:32.377Z,12.85
2023-01-26T20:08:59.428Z,13.18
2023-01-26T20:11:28.730Z,11.48
2023-01-26T20:14:00.453Z,13.10
2023-01-26T20:18:58.676Z,12.75
2023-01-26T20:21:25.840Z,12.38
2023-01-26T20:23:55.259Z,12.25
2023-01-26T20:26:24.131Z,16.25
2023-01-26T20:28:50.750Z,15.30
2023-01-26T20:31:20.242Z,13.85
2023-01-26T20:33:48.868Z,13.90
2023-01-26T20:36:18.442Z,15.52
2023-01-26T20:38:46.315Z,14.90
2023-01-26T20:41:16.099Z,12.88
2023-01-26T20:43:58.039Z,15.40
2023-01-26T20:46:27.908Z,12.65
2023-01-26T20:48:55.578Z,13.73
2023-01-26T20:51:29.162Z,13.15
2023-01-26T20:53:57.649Z,13.15
2023-01-26T20:56:24.311Z,12.80
2023-01-26T20:58:54.739Z,12.20
2023-01-26T21:01:29.338Z,16.00
2023-01-26T21:03:56.038Z,13.32
2023-01-26T21:06:23.955Z,13.00
2023-01-26T21:08:53.971Z,13.48
2023-01-26T21:11:21.942Z,15.88
2023-01-26T21:13:48.628Z,15.85
2023-01-26T21:16:16.803Z,14.85
2023-01-26T21:18:43.848Z,13.25
2023-01-26T21:21:12.688Z,12.48
2023-01-26T21:23:39.257Z,11.23
2023-01-26T21:26:10.124Z,10.38
2023-01-26T21:28:36.920Z,11.15
2023-01-26T21:31:09.117Z,10.18
2023-01-26T21:33:41.082Z,11.43
2023-01-26T21:36:10.713Z,12.35
2023-01-26T21:38:39.743Z,12.35
2023-01-26T21:41:31.410Z,11.15
2023-01-26T21:43:58.970Z,10.75
2023-01-26T21:46:26.138Z,10.13
2023-01-26T21:48:52.718Z,12.48
2023-01-26T21:51:38.379Z,11.43
2023-01-26T21:54:08.040Z,9.75
2023-01-26T21:56:35.270Z,10.20
2023-01-26T21:59:04.223Z,13.60
2023-01-26T22:01:32.600Z,11.00
2023-01-26T22:04:00.925Z,12.43
2023-01-26T22:06:28.886Z,11.50
2023-01-26T22:08:55.836Z,11.95
2023-01-26T22:11:22.444Z,13.30
2023-01-26T22:13:48.887Z,11.80
2023-01-26T22:16:15.794Z,13.73
2023-01-26T22:18:42.682Z,12.80
2023-01-26T22:21:09.362Z,12.40
2023-01-26T22:23:38.237Z,13.45
2023-01-26T22:26:13.516Z,13.52
2023-01-26T22:28:40.592Z,11.15
2023-01-26T22:31:07.746Z,12.85
2023-01-26T22:33:35.525Z,13.15
2023-01-26T22:36:06.058Z,15.30
2023-01-26T22:38:34.130Z,13.45
2023-01-26T22:41:00.885Z,14.45
2023-01-26T22:43:27.755Z,13.07
2023-01-26T22:45:54.654Z,12.35
2023-01-26T22:48:21.303Z,12.85
2023-01-26T22:50:47.795Z,12.95
2023-01-26T22:53:14.350Z,12.30
2023-01-26T22:55:42.234Z,13.45
2023-01-26T22:58:10.374Z,12.73
2023-01-26T23:00:38.325Z,14.13
2023-01-26T23:03:05.425Z,12.85
2023-01-26T23:05:33.702Z,12.52
2023-01-26T23:08:01.083Z,12.30
2023-01-26T23:10:28.645Z,10.93
2023-01-26T23:12:55.883Z,10.45
2023-01-26T23:15:23.033Z,11.57
2023-01-26T23:17:50.520Z,11.57
2023-01-26T23:20:18.943Z,12.82
2023-01-26T23:22:45.859Z,12.07
2023-01-26T23:25:31.940Z,12.25
2023-01-26T23:28:03.235Z,13.30
2023-01-26T23:30:30.087Z,10.82
2023-01-26T23:32:56.594Z,11.95
2023-01-26T23:35:25.528Z,12.23
2023-01-26T23:37:52.899Z,12.88
2023-01-26T23:40:19.357Z,12.73
2023-01-26T23:43:03.322Z,12.38
2023-01-26T23:45:32.440Z,10.75
2023-01-26T23:47:59.270Z,10.70
2023-01-26T23:50:26.604Z,10.95
2023-01-26T23:52:53.150Z,10.55
2023-01-26T23:55:19.683Z,10.73
2023-01-26T23:57:46.294Z,10.57
